createdAt,value
2022-12-04T00:01:09.845Z,19.33
2022-12-04T00:03:36.866Z,18.73
2022-12-04T00:06:08.924Z,19.23
2022-12-04T00:08:35.891Z,17.98
2022-12-04T00:11:04.558Z,20.27
2022-12-04T00:13:31.955Z,19.65
2022-12-04T00:15:59.467Z,16.23
2022-12-04T00:18:26.835Z,19.33
2022-12-04T00:20:53.678Z,20.05
2022-12-04T00:23:20.522Z,19.15
2022-12-04T00:25:50.328Z,20.35
2022-12-04T00:28:17.798Z,25.25
2022-12-04T00:30:45.324Z,23.20
2022-12-04T00:33:13.157Z,19.90
2022-12-04T00:35:40.109Z,17.63
2022-12-04T00:38:06.998Z,21.17
2022-12-04T00:40:33.923Z,19.95
2022-12-04T00:43:01.183Z,20.95
2022-12-04T00:45:28.068Z,20.08
2022-12-04T00:47:55.061Z,19.95
2022-12-04T00:50:22.164Z,18.45
2022-12-04T00:52:49.224Z,20.65
2022-12-04T00:55:16.237Z,18.73
2022-12-04T00:57:43.328Z,18.50
2022-12-04T01:00:10.895Z,18.75
2022-12-04T01:02:37.838Z,21.73
2022-12-04T01:05:05.060Z,22.67
2022-12-04T01:07:32.156Z,20.38
2022-12-04T01:09:59.110Z,23.58
2022-12-04T01:12:26.012Z,19.13
2022-12-04T01:14:53.024Z,22.20
2022-12-04T01:17:22.456Z,20.90
2022-12-04T01:19:49.550Z,22.10
2022-12-04T01:22:16.441Z,20.67
2022-12-04T01:24:43.385Z,20.45
2022-12-04T01:27:10.741Z,22.48
2022-12-04T01:29:37.910Z,24.83
2022-12-04T01:32:05.087Z,20.42
2022-12-04T01:34:32.335Z,21.08
2022-12-04T01:36:59.288Z,22.17
2022-12-04T01:39:29.480Z,21.77
2022-12-04T01:41:56.436Z,23.40
2022-12-04T01:44:24.947Z,20.77
2022-12-04T01:46:58.856Z,20.00
2022-12-04T01:49:29.497Z,23.17
2022-12-04T01:52:01.334Z,20.85
2022-12-04T01:54:30.607Z,26.05
2022-12-04T01:57:11.813Z,23.35
2022-12-04T01:59:59.405Z,20.10
2022-12-04T02:02:32.213Z,21.50
2022-12-04T02:05:00.690Z,22.00
2022-12-04T02:07:28.177Z,21.77
2022-12-04T02:09:56.394Z,22.48
2022-12-04T02:12:45.000Z,22.55
2022-12-04T02:15:20.832Z,25.77
2022-12-04T02:17:53.850Z,21.45
2022-12-04T02:20:33.149Z,23.13
2022-12-04T02:23:44.843Z,19.45
2022-12-04T02:26:33.870Z,20.17
2022-12-04T02:29:00.791Z,20.33
2022-12-04T02:31:48.045Z,22.95
2022-12-04T02:34:50.892Z,22.13
2022-12-04T02:37:20.018Z,21.63
2022-12-04T02:40:07.604Z,20.70
2022-12-04T02:42:39.836Z,22.85
2022-12-04T02:45:10.591Z,19.65
2022-12-04T02:47:38.192Z,21.73
2022-12-04T02:50:23.525Z,21.23
2022-12-04T02:53:06.009Z,17.90
2022-12-04T02:56:00.877Z,22.50
2022-12-04T02:58:42.249Z,23.23
2022-12-04T03:01:19.649Z,22.92
2022-12-04T03:04:14.436Z,18.77
2022-12-04T03:06:42.930Z,21.27
2022-12-04T03:09:17.699Z,25.63
2022-12-04T03:11:47.175Z,26.13
2022-12-04T03:14:19.270Z,26.27
2022-12-04T03:16:46.258Z,24.63
2022-12-04T03:19:28.499Z,24.23
2022-12-04T03:21:58.566Z,21.67
2022-12-04T03:24:25.442Z,25.08
2022-12-04T03:26:55.305Z,24.23
2022-12-04T03:29:36.008Z,25.40
2022-12-04T03:32:18.077Z,22.35
2022-12-04T03:34:51.987Z,26.45
2022-12-04T03:37:20.411Z,23.80
2022-12-04T03:39:57.854Z,24.02
2022-12-04T03:42:33.014Z,25.70
2022-12-04T03:45:10.966Z,26.73
2022-12-04T03:47:55.452Z,26.13
2022-12-04T03:50:38.399Z,27.55
2022-12-04T03:53:16.829Z,27.48
2022-12-04T03:55:57.067Z,25.17
2022-12-04T03:58:30.362Z,30.20
2022-12-04T04:00:57.299Z,28.98
2022-12-04T04:03:26.611Z,30.52
2022-12-04T04:05:56.003Z,24.17
2022-12-04T04:08:29.568Z,30.52
2022-12-04T04:13:55.678Z,27.95
2022-12-04T04:16:41.944Z,29.45
2022-12-04T04:19:27.556Z,26.77
2022-12-04T04:22:13.414Z,29.73
2022-12-04T04:24:46.804Z,29.30
2022-12-04T04:27:13.894Z,30.13
2022-12-04T04:29:40.956Z,32.17
2022-12-04T04:32:29.777Z,29.83
2022-12-04T04:34:58.873Z,29.13
2022-12-04T04:37:49.807Z,30.50
2022-12-04T04:40:27.231Z,31.67
2022-12-04T04:43:17.418Z,29.02
2022-12-04T04:45:46.878Z,29.20
2022-12-04T04:48:17.793Z,34.22
2022-12-04T04:50:44.799Z,29.48
2022-12-04T04:53:27.093Z,28.85
2022-12-04T04:55:53.985Z,28.63
2022-12-04T04:58:20.970Z,32.95
2022-12-04T05:01:02.328Z,31.70
2022-12-04T05:03:29.698Z,27.08
2022-12-04T05:05:56.594Z,29.25
2022-12-04T05:08:23.533Z,28.13
2022-12-04T05:10:50.480Z,34.15
2022-12-04T05:13:17.878Z,27.77
2022-12-04T05:15:44.917Z,29.98
2022-12-04T05:18:11.948Z,26.00
2022-12-04T05:20:39.447Z,31.98
2022-12-04T05:23:07.313Z,31.02
2022-12-04T05:25:34.200Z,31.17
2022-12-04T05:28:01.178Z,28.88
2022-12-04T05:30:28.173Z,30.42
2022-12-04T05:32:55.012Z,26.83
2022-12-04T05:35:21.921Z,30.45
2022-12-04T05:37:48.947Z,28.90
2022-12-04T05:40:15.888Z,27.90
2022-12-04T05:42:43.145Z,30.70
2022-12-04T05:45:10.262Z,31.05
2022-12-04T05:47:43.953Z,28.67
2022-12-04T05:52:38.554Z,30.65
2022-12-04T05:55:05.897Z,29.25
2022-12-04T05:57:32.744Z,34.55
2022-12-04T05:59:59.726Z,31.25
2022-12-04T06:02:26.648Z,32.42
2022-12-04T06:04:53.637Z,28.58
2022-12-04T06:07:20.622Z,31.83
2022-12-04T06:09:47.502Z,29.98
2022-12-04T06:12:14.386Z,33.00
2022-12-04T06:14:41.334Z,30.50
2022-12-04T06:17:08.239Z,29.33
2022-12-04T06:19:35.207Z,32.72
2022-12-04T06:22:02.130Z,28.52
2022-12-04T06:24:29.069Z,31.83
2022-12-04T06:27:26.877Z,32.70
2022-12-04T06:29:48.722Z,33.40
2022-12-04T06:32:21.150Z,29.25
2022-12-04T06:34:53.001Z,27.98
2022-12-04T06:37:24.092Z,29.92
2022-12-04T06:39:51.101Z,31.67
2022-12-04T06:42:17.953Z,31.90
2022-12-04T06:44:45.036Z,31.27
2022-12-04T06:47:11.917Z,32.13
2022-12-04T06:49:38.989Z,33.42
2022-12-04T06:52:05.869Z,33.97
2022-12-04T06:54:32.713Z,30.33
2022-12-04T06:56:59.592Z,32.22
2022-12-04T06:59:26.623Z,32.53
2022-12-04T07:01:53.489Z,32.17
2022-12-04T07:04:20.430Z,34.38
2022-12-04T07:06:47.417Z,35.78
2022-12-04T07:09:15.763Z,30.83
2022-12-04T07:11:43.171Z,32.45
2022-12-04T07:14:10.914Z,29.00
2022-12-04T07:16:41.065Z,31.45
2022-12-04T07:19:10.949Z,28.33
2022-12-04T07:21:37.905Z,29.50
2022-12-04T07:24:04.899Z,27.88
2022-12-04T07:26:31.867Z,31.05
2022-12-04T07:28:59.055Z,28.88
2022-12-04T07:31:26.705Z,27.55
2022-12-04T07:33:54.518Z,26.90
2022-12-04T07:36:21.949Z,29.42
2022-12-04T07:38:48.997Z,28.75
2022-12-04T07:41:16.067Z,28.58
2022-12-04T07:43:43.301Z,26.30
2022-12-04T07:46:18.492Z,23.35
2022-12-04T07:48:45.504Z,27.90
2022-12-04T07:51:15.579Z,25.73
2022-12-04T07:53:42.568Z,24.15
2022-12-04T07:56:12.847Z,24.75
2022-12-04T07:58:40.287Z,23.70
2022-12-04T08:01:14.167Z,25.27
2022-12-04T08:03:47.051Z,27.88
2022-12-04T08:08:41.955Z,22.25
2022-12-04T08:11:13.808Z,25.10
2022-12-04T08:13:40.654Z,26.13
2022-12-04T08:16:09.102Z,25.83
2022-12-04T08:18:36.408Z,26.08
2022-12-04T08:21:10.214Z,23.80
2022-12-04T08:23:38.457Z,28.17
2022-12-04T08:26:06.123Z,25.70
2022-12-04T08:28:33.048Z,23.17
2022-12-04T08:31:04.623Z,25.48
2022-12-04T08:33:31.971Z,23.90
2022-12-04T08:35:59.012Z,23.70
2022-12-04T08:38:26.071Z,22.90
2022-12-04T08:40:52.986Z,22.88
2022-12-04T08:43:20.197Z,24.00
2022-12-04T08:45:56.088Z,22.98
2022-12-04T08:48:23.112Z,20.08
2022-12-04T08:50:50.033Z,21.63
2022-12-04T08:53:17.178Z,21.42
2022-12-04T08:55:44.445Z,19.63
2022-12-04T08:58:11.303Z,22.40
2022-12-04T09:00:38.378Z,19.73
2022-12-04T09:03:08.121Z,18.23
2022-12-04T09:05:35.270Z,23.60
2022-12-04T09:08:02.175Z,17.52
2022-12-04T09:10:29.148Z,18.42
2022-12-04T09:12:56.187Z,22.13
2022-12-04T09:15:23.126Z,19.10
2022-12-04T09:17:50.057Z,17.60
2022-12-04T09:20:17.151Z,20.30
2022-12-04T09:23:02.876Z,15.80
2022-12-04T09:25:30.625Z,21.58
2022-12-04T09:27:57.508Z,19.08
2022-12-04T09:30:24.396Z,21.30
2022-12-04T09:32:51.342Z,18.48
2022-12-04T09:35:18.342Z,18.13
2022-12-04T09:37:45.199Z,18.27
2022-12-04T09:40:33.433Z,21.33
2022-12-04T09:43:32.053Z,17.23
2022-12-04T09:46:02.510Z,19.42
2022-12-04T09:48:33.661Z,21.52
2022-12-04T09:51:00.875Z,19.67
2022-12-04T09:53:43.993Z,21.98
2022-12-04T09:56:19.945Z,18.17
2022-12-04T09:58:47.911Z,20.65
2022-12-04T10:01:19.698Z,20.92
2022-12-04T10:03:46.744Z,20.48
2022-12-04T10:06:18.871Z,23.25
2022-12-04T10:08:46.994Z,22.38
2022-12-04T10:11:23.939Z,20.55
2022-12-04T10:14:04.496Z,19.38
2022-12-04T10:17:08.264Z,17.80
2022-12-04T10:19:40.337Z,19.65
2022-12-04T10:22:25.804Z,22.42
2022-12-04T10:24:56.754Z,24.80
2022-12-04T10:27:28.216Z,20.40
2022-12-04T10:30:22.051Z,18.45
2022-12-04T10:32:49.427Z,19.38
2022-12-04T10:35:27.477Z,23.02
2022-12-04T10:38:03.685Z,20.67
2022-12-04T10:40:35.421Z,22.73
2022-12-04T10:43:15.667Z,20.98
2022-12-04T10:45:42.958Z,24.17
2022-12-04T10:48:30.266Z,20.88
2022-12-04T10:50:57.123Z,23.02
2022-12-04T10:53:38.721Z,24.55
2022-12-04T10:56:23.789Z,21.83
2022-12-04T10:59:01.832Z,22.10
2022-12-04T11:01:33.487Z,21.90
2022-12-04T11:04:24.909Z,24.73
2022-12-04T11:07:08.501Z,23.30
2022-12-04T11:09:35.446Z,26.80
2022-12-04T11:12:09.073Z,20.83
2022-12-04T11:17:07.713Z,25.27
2022-12-04T11:19:36.357Z,21.65
2022-12-04T11:22:17.636Z,21.45
2022-12-04T11:24:50.791Z,21.10
2022-12-04T11:27:21.509Z,19.35
2022-12-04T11:29:48.525Z,28.02
2022-12-04T11:32:22.188Z,18.65
2022-12-04T11:37:27.913Z,17.75
2022-12-04T11:39:55.063Z,17.02
2022-12-04T11:42:27.262Z,16.50
2022-12-04T11:45:18.209Z,17.98
2022-12-04T11:47:53.402Z,15.38
2022-12-04T11:50:42.626Z,13.57
2022-12-04T11:53:19.351Z,17.80
2022-12-04T11:56:07.442Z,15.50
2022-12-04T11:58:46.712Z,16.10
2022-12-04T12:01:33.541Z,16.75
2022-12-04T12:04:09.278Z,18.38
2022-12-04T12:06:42.035Z,15.10
2022-12-04T12:09:38.808Z,16.80
2022-12-04T12:12:11.717Z,16.13
2022-12-04T12:14:57.428Z,17.05
2022-12-04T12:17:37.252Z,14.35
2022-12-04T12:20:10.935Z,18.17
2022-12-04T12:25:29.388Z,14.77
2022-12-04T12:28:09.689Z,16.33
2022-12-04T12:31:12.726Z,18.27
2022-12-04T12:33:54.992Z,16.10
2022-12-04T12:36:22.389Z,16.25
2022-12-04T12:38:57.326Z,15.13
2022-12-04T12:41:28.315Z,16.35
2022-12-04T12:44:04.457Z,13.90
2022-12-04T12:46:43.616Z,16.73
2022-12-04T12:49:30.766Z,15.60
2022-12-04T12:52:05.048Z,18.50
2022-12-04T12:55:04.750Z,17.67
2022-12-04T12:57:36.008Z,15.63
2022-12-04T13:00:23.446Z,17.20
2022-12-04T13:03:16.455Z,20.92
2022-12-04T13:05:45.183Z,23.48
2022-12-04T13:08:49.260Z,20.30
2022-12-04T13:11:21.525Z,23.00
2022-12-04T13:13:57.659Z,19.60
2022-12-04T13:16:25.328Z,19.70
2022-12-04T13:19:01.640Z,21.73
2022-12-04T13:21:31.308Z,21.92
2022-12-04T13:24:18.607Z,19.67
2022-12-04T13:26:52.707Z,21.85
2022-12-04T13:29:45.027Z,19.77
2022-12-04T13:32:25.611Z,18.38
2022-12-04T13:35:00.165Z,22.70
2022-12-04T13:37:39.807Z,20.90
2022-12-04T13:40:25.645Z,19.75
2022-12-04T13:42:52.844Z,20.85
2022-12-04T13:45:27.842Z,23.48
2022-12-04T13:47:59.129Z,17.60
2022-12-04T13:50:34.317Z,17.55
2022-12-04T13:53:01.433Z,19.20
2022-12-04T13:55:29.914Z,19.48
2022-12-04T13:57:59.829Z,17.88
2022-12-04T14:00:32.446Z,17.88
2022-12-04T14:03:20.875Z,16.17
2022-12-04T14:05:47.753Z,16.50
2022-12-04T14:08:25.112Z,16.85
2022-12-04T14:11:00.893Z,16.92
2022-12-04T14:13:29.713Z,16.13
2022-12-04T14:16:07.868Z,17.75
2022-12-04T14:18:34.863Z,16.20
2022-12-04T14:21:04.862Z,15.25
2022-12-04T14:23:39.635Z,13.95
2022-12-04T14:26:18.723Z,15.85
2022-12-04T14:28:45.769Z,15.00
2022-12-04T14:31:21.158Z,14.15
2022-12-04T14:34:04.086Z,15.43
2022-12-04T14:36:35.907Z,16.55
2022-12-04T14:39:06.179Z,15.25
2022-12-04T14:41:33.140Z,16.83
2022-12-04T14:44:00.070Z,17.27
2022-12-04T14:46:32.744Z,15.75
2022-12-04T14:49:02.557Z,18.07
2022-12-04T14:51:41.723Z,20.23
2022-12-04T14:54:23.627Z,20.85
2022-12-04T14:57:14.176Z,20.60
2022-12-04T14:59:51.754Z,17.70
2022-12-04T15:02:35.052Z,17.90
2022-12-04T15:05:02.367Z,19.50
2022-12-04T15:07:31.382Z,20.15
2022-12-04T15:10:18.169Z,21.15
2022-12-04T15:12:51.091Z,18.88
2022-12-04T15:15:26.480Z,19.40
2022-12-04T15:18:03.957Z,19.15
2022-12-04T15:20:42.100Z,19.73
2022-12-04T15:23:13.097Z,18.55
2022-12-04T15:25:47.857Z,17.10
2022-12-04T15:28:18.283Z,18.60
2022-12-04T15:30:46.837Z,18.95
2022-12-04T15:33:21.657Z,18.38
2022-12-04T15:35:57.945Z,16.70
2022-12-04T15:38:24.851Z,14.43
2022-12-04T15:40:55.598Z,11.63
2022-12-04T15:43:46.555Z,13.23
2022-12-04T15:46:37.665Z,14.38
2022-12-04T15:49:06.629Z,14.10
2022-12-04T15:51:33.557Z,12.82
2022-12-04T15:54:00.467Z,13.07
2022-12-04T15:56:28.837Z,11.57
2022-12-04T15:59:00.322Z,12.02
2022-12-04T16:01:27.232Z,11.30
2022-12-04T16:03:57.354Z,12.52
2022-12-04T16:06:29.314Z,14.90
2022-12-04T16:09:02.046Z,11.98
2022-12-04T16:11:36.715Z,15.33
2022-12-04T16:14:08.509Z,14.38
2022-12-04T16:16:36.787Z,14.23
2022-12-04T16:19:08.646Z,14.65
2022-12-04T16:21:35.987Z,23.33
2022-12-04T16:24:04.271Z,23.65
2022-12-04T16:26:32.519Z,16.83
2022-12-04T16:28:59.708Z,16.83
2022-12-04T16:31:26.897Z,18.92
2022-12-04T16:33:53.858Z,13.27
2022-12-04T16:36:20.785Z,18.40
2022-12-04T16:38:48.506Z,14.80
2022-12-04T16:41:18.933Z,12.48
2022-12-04T16:43:45.980Z,18.75
2022-12-04T16:46:14.568Z,15.63
2022-12-04T16:48:42.297Z,16.58
2022-12-04T16:51:15.562Z,16.42
2022-12-04T16:53:42.403Z,18.67
2022-12-04T16:56:09.454Z,12.82
2022-12-04T16:58:36.427Z,20.08
2022-12-04T17:01:03.651Z,15.70
2022-12-04T17:03:32.233Z,15.15
2022-12-04T17:06:00.348Z,15.27
2022-12-04T17:08:27.899Z,13.95
2022-12-04T17:10:54.799Z,15.65
2022-12-04T17:13:22.009Z,15.90
2022-12-04T17:15:49.074Z,15.07
2022-12-04T17:18:20.806Z,13.57
2022-12-04T17:20:49.604Z,12.75
2022-12-04T17:23:16.556Z,13.30
2022-12-04T17:25:43.386Z,15.68
2022-12-04T17:28:10.419Z,15.63
2022-12-04T17:30:37.371Z,14.45
2022-12-04T17:33:04.926Z,15.52
2022-12-04T17:35:31.967Z,14.40
2022-12-04T17:38:04.073Z,16.05
2022-12-04T17:40:33.157Z,15.73
2022-12-04T17:43:00.088Z,16.70
2022-12-04T17:45:27.304Z,14.23
2022-12-04T17:47:54.448Z,16.90
2022-12-04T17:50:21.384Z,16.73
2022-12-04T17:52:51.183Z,15.95
2022-12-04T17:55:18.947Z,14.23
2022-12-04T17:57:45.888Z,14.38
2022-12-04T18:00:13.040Z,16.25
2022-12-04T18:02:41.655Z,14.43
2022-12-04T18:05:09.457Z,16.05
2022-12-04T18:07:36.447Z,15.55
2022-12-04T18:10:03.436Z,16.08
2022-12-04T18:12:30.296Z,15.70
2022-12-04T18:14:57.172Z,15.70
2022-12-04T18:17:24.138Z,14.35
2022-12-04T18:19:52.008Z,15.60
2022-12-04T18:22:19.415Z,16.45
2022-12-04T18:24:46.322Z,17.27
2022-12-04T18:27:13.191Z,15.40
2022-12-04T18:29:41.384Z,18.35
2022-12-04T18:32:09.422Z,13.90
2022-12-04T18:34:37.843Z,16.70
2022-12-04T18:37:04.842Z,16.58
2022-12-04T18:39:31.714Z,15.02
2022-12-04T18:41:58.639Z,16.05
2022-12-04T18:44:26.111Z,18.10
2022-12-04T18:46:53.685Z,18.00
2022-12-04T18:49:24.021Z,15.60
2022-12-04T18:51:50.976Z,18.33
2022-12-04T18:54:21.166Z,17.45
2022-12-04T18:56:48.153Z,15.68
2022-12-04T18:59:19.787Z,15.20
2022-12-04T19:01:49.932Z,15.95
2022-12-04T19:04:20.637Z,18.58
2022-12-04T19:06:52.977Z,20.33
2022-12-04T19:09:47.113Z,17.30
2022-12-04T19:12:13.586Z,17.58
2022-12-04T19:14:40.943Z,18.10
2022-12-04T19:17:07.897Z,19.05
2022-12-04T19:19:34.857Z,18.15
2022-12-04T19:22:02.297Z,15.93
2022-12-04T19:24:29.155Z,17.35
2022-12-04T19:26:56.077Z,14.07
2022-12-04T19:29:23.369Z,16.90
2022-12-04T19:31:54.667Z,16.17
2022-12-04T19:34:24.662Z,16.45
2022-12-04T19:36:51.654Z,15.48
2022-12-04T19:39:18.704Z,16.70
2022-12-04T19:41:47.405Z,15.02
2022-12-04T19:44:46.806Z,17.08
2022-12-04T19:47:01.699Z,15.98
2022-12-04T19:49:28.735Z,17.80
2022-12-04T19:51:55.694Z,16.15
2022-12-04T19:54:23.829Z,15.90
2022-12-04T19:56:51.241Z,15.85
2022-12-04T19:59:18.623Z,16.73
2022-12-04T20:01:45.676Z,15.98
2022-12-04T20:04:13.073Z,16.15
2022-12-04T20:06:42.379Z,12.60
2022-12-04T20:09:11.339Z,12.07
2022-12-04T20:11:38.472Z,12.13
2022-12-04T20:14:05.782Z,14.82
2022-12-04T20:16:33.272Z,11.02
2022-12-04T20:19:01.477Z,12.77
2022-12-04T20:21:30.616Z,12.90
2022-12-04T20:23:58.546Z,15.13
2022-12-04T20:26:27.207Z,12.52
2022-12-04T20:28:55.481Z,11.35
2022-12-04T20:31:26.157Z,13.15
2022-12-04T20:33:54.014Z,14.15
2022-12-04T20:36:22.073Z,15.38
2022-12-04T20:38:49.826Z,12.93
2022-12-04T20:41:16.999Z,15.52
2022-12-04T20:43:44.367Z,13.05
2022-12-04T20:46:20.346Z,13.63
2022-12-04T20:48:50.747Z,13.23
2022-12-04T20:51:32.234Z,16.00
2022-12-04T20:53:59.505Z,13.02
2022-12-04T20:56:34.111Z,11.68
2022-12-04T20:59:03.259Z,11.57
2022-12-04T21:01:30.309Z,14.45
2022-12-04T21:03:58.480Z,12.77
2022-12-04T21:06:34.615Z,12.00
2022-12-04T21:09:05.996Z,15.05
2022-12-04T21:11:37.610Z,14.50
2022-12-04T21:14:25.119Z,13.23
2022-12-04T21:16:52.137Z,21.55
2022-12-04T21:19:20.549Z,14.82
2022-12-04T21:21:47.657Z,12.85
2022-12-04T21:24:15.622Z,15.57
2022-12-04T21:26:42.780Z,16.27
2022-12-04T21:29:09.909Z,15.80
2022-12-04T21:31:37.132Z,16.85
2022-12-04T21:34:05.692Z,14.80
2022-12-04T21:36:32.654Z,17.40
2022-12-04T21:38:59.678Z,17.65
2022-12-04T21:41:45.433Z,15.68
2022-12-04T21:44:17.295Z,17.42
2022-12-04T21:46:45.010Z,16.67
2022-12-04T21:49:12.620Z,17.52
2022-12-04T21:51:56.843Z,20.25
2022-12-04T21:54:25.721Z,17.42
2022-12-04T21:56:53.639Z,20.48
2022-12-04T21:59:20.624Z,19.25
2022-12-04T22:01:49.008Z,20.73
2022-12-04T22:04:16.225Z,19.38
2022-12-04T22:06:45.807Z,16.85
2022-12-04T22:09:16.236Z,21.95
2022-12-04T22:11:43.804Z,21.67
2022-12-04T22:14:11.454Z,18.83
2022-12-04T22:16:42.373Z,17.77
2022-12-04T22:19:09.644Z,18.77
2022-12-04T22:21:36.628Z,19.27
2022-12-04T22:24:04.365Z,20.83
2022-12-04T22:26:31.586Z,22.63
2022-12-04T22:28:58.668Z,19.27
2022-12-04T22:31:28.179Z,16.75
2022-12-04T22:33:55.929Z,22.15
2022-12-04T22:36:24.533Z,18.25
2022-12-04T22:41:38.619Z,19.20
2022-12-04T22:44:05.722Z,21.52
2022-12-04T22:46:32.768Z,20.20
2022-12-04T22:49:01.232Z,19.40
2022-12-04T22:51:28.432Z,20.00
2022-12-04T22:53:56.680Z,21.75
2022-12-04T22:56:24.478Z,22.13
2022-12-04T22:58:51.736Z,21.15
2022-12-04T23:01:21.403Z,19.70
2022-12-04T23:03:48.554Z,18.67
2022-12-04T23:06:15.762Z,19.48
2022-12-04T23:08:43.061Z,19.05
2022-12-04T23:11:12.326Z,20.02
2022-12-04T23:13:39.936Z,19.00
2022-12-04T23:16:09.776Z,21.13
2022-12-04T23:18:37.437Z,23.38
2022-12-04T23:21:09.455Z,24.00
2022-12-04T23:23:37.227Z,22.08
2022-12-04T23:26:05.381Z,23.45
2022-12-04T23:28:32.244Z,22.08
2022-12-04T23:30:59.388Z,22.40
2022-12-04T23:33:26.402Z,23.85
2022-12-04T23:35:56.811Z,23.48
2022-12-04T23:38:24.473Z,18.95
2022-12-04T23:41:07.503Z,20.70
2022-12-04T23:43:34.928Z,18.43
2022-12-04T23:46:07.337Z,22.50
2022-12-04T23:48:37.626Z,23.23
2022-12-04T23:51:04.668Z,22.77
2022-12-04T23:53:31.611Z,25.25
2022-12-04T23:56:02.844Z,23.42
2022-12-04T23:58:29.857Z,26.90
